Time;durP1;ratioP1;P1;durP2;ratioP2;P2;SDS_P1;SDS_P2;PMS_P1;PMS_P2;Temp;Humidity;BMP_temperature;BMP_pressure;BME280_temperature;BME280_humidity;BME280_pressure;Samples;Min_cycle;Max_cycle;Signal;HPM_P1;HPM_P2
2022/12/22 03:26:32;;;;;;;48.88;22.95;;;;;;;;;;5020345;28;20127;-67
2022/12/22 03:28:58;;;;;;;53.70;23.50;;;;;;;;;;5029467;28;20073;-67
2022/12/22 03:31:24;;;;;;;52.72;23.98;;;;;;;;;;5022056;28;20493;-67
2022/12/22 03:33:50;;;;;;;64.95;25.25;;;;;;;;;;5035891;28;20080;-67
2022/12/22 03:36:16;;;;;;;52.20;22.40;;;;;;;;;;5024346;28;20065;-67
2022/12/22 03:38:42;;;;;;;57.38;24.25;;;;;;;;;;5022726;28;20060;-67
2022/12/22 03:46:28;;;;;;;57.50;24.35;;;;;;;;;;5036349;28;20037;-67
2022/12/22 03:46:39;;;;;;;58.35;24.17;;;;;;;;;;5022892;28;20180;-67
2022/12/22 03:49:11;;;;;;;52.75;23.33;;;;;;;;;;5031215;28;20128;-66
2022/12/22 03:51:41;;;;;;;58.85;24.00;;;;;;;;;;5024513;28;20037;-66
2022/12/22 03:54:08;;;;;;;57.42;25.00;;;;;;;;;;5022978;28;20038;-66
2022/12/22 03:56:34;;;;;;;53.33;23.75;;;;;;;;;;5018913;28;20038;-66
2022/12/22 03:59:00;;;;;;;54.85;24.48;;;;;;;;;;5021806;28;20078;-67
2022/12/22 04:01:26;;;;;;;65.35;25.73;;;;;;;;;;5016339;28;20076;-67
2022/12/22 04:03:52;;;;;;;56.38;24.83;;;;;;;;;;5032357;28;20164;-67
2022/12/22 04:06:18;;;;;;;59.08;24.85;;;;;;;;;;5028390;28;20141;-67
2022/12/22 04:08:44;;;;;;;58.78;25.35;;;;;;;;;;5026140;28;20041;-67
2022/12/22 04:13:56;;;;;;;65.53;25.25;;;;;;;;;;5036343;28;20078;-67
2022/12/22 04:16:22;;;;;;;63.40;24.70;;;;;;;;;;5021908;28;20037;-67
2022/12/22 04:18:48;;;;;;;60.42;24.60;;;;;;;;;;5015558;28;20092;-67
2022/12/22 04:21:14;;;;;;;63.65;25.05;;;;;;;;;;5026480;28;20467;-66
2022/12/22 04:23:40;;;;;;;60.78;25.20;;;;;;;;;;5013339;28;20041;-66
2022/12/22 04:26:06;;;;;;;68.65;25.67;;;;;;;;;;5023992;28;20402;-67
2022/12/22 04:28:32;;;;;;;62.53;25.08;;;;;;;;;;5023778;28;20033;-67
2022/12/22 04:30:58;;;;;;;60.40;22.85;;;;;;;;;;5029605;28;20392;-67
2022/12/22 04:33:24;;;;;;;56.50;24.35;;;;;;;;;;5026963;28;20041;-67
2022/12/22 04:35:50;;;;;;;69.85;25.15;;;;;;;;;;5026049;28;20037;-66
2022/12/22 04:38:16;;;;;;;67.15;25.40;;;;;;;;;;5028844;28;20514;-66
2022/12/22 04:40:42;;;;;;;67.88;25.83;;;;;;;;;;5031942;28;20073;-67
2022/12/22 04:43:08;;;;;;;66.10;24.95;;;;;;;;;;5028445;28;20442;-66
2022/12/22 04:45:34;;;;;;;69.70;26.40;;;;;;;;;;5031735;28;20045;-67
2022/12/22 04:48:00;;;;;;;58.38;24.40;;;;;;;;;;5023888;28;20041;-66
2022/12/22 04:50:26;;;;;;;66.30;26.92;;;;;;;;;;5017840;28;20041;-66
2022/12/22 04:52:52;;;;;;;65.10;25.48;;;;;;;;;;5023005;28;20037;-66
2022/12/22 04:55:18;;;;;;;58.67;25.30;;;;;;;;;;5031806;28;20041;-66
2022/12/22 04:57:44;;;;;;;66.70;25.35;;;;;;;;;;5030877;28;20156;-66
2022/12/22 05:00:11;;;;;;;66.75;25.65;;;;;;;;;;5024754;28;20392;-66
2022/12/22 05:02:37;;;;;;;99.70;29.20;;;;;;;;;;5025403;28;20049;-66
2022/12/22 05:05:03;;;;;;;75.38;26.70;;;;;;;;;;5029737;28;20124;-66
2022/12/22 05:07:29;;;;;;;66.28;25.48;;;;;;;;;;5019799;28;20503;-66
2022/12/22 05:09:55;;;;;;;58.63;24.33;;;;;;;;;;5027549;28;20033;-66
2022/12/22 05:15:06;;;;;;;65.03;25.58;;;;;;;;;;5022552;28;20045;-66
2022/12/22 05:17:32;;;;;;;75.28;26.75;;;;;;;;;;5024202;28;20049;-66
2022/12/22 05:19:58;;;;;;;75.90;27.60;;;;;;;;;;5021262;28;20042;-67
2022/12/22 05:22:24;;;;;;;63.40;25.75;;;;;;;;;;5022699;28;20037;-67
2022/12/22 05:24:50;;;;;;;58.40;24.63;;;;;;;;;;5016438;28;20043;-67
2022/12/22 05:27:16;;;;;;;63.47;25.15;;;;;;;;;;5021870;28;20045;-68
2022/12/22 05:29:42;;;;;;;67.57;26.08;;;;;;;;;;5018946;28;20044;-68
2022/12/22 05:32:08;;;;;;;77.32;25.98;;;;;;;;;;5023350;28;20130;-68
2022/12/22 05:34:34;;;;;;;78.10;26.75;;;;;;;;;;5027777;28;20033;-67
2022/12/22 05:37:00;;;;;;;64.40;24.38;;;;;;;;;;5025304;28;20624;-67
2022/12/22 05:39:26;;;;;;;87.00;27.45;;;;;;;;;;5024124;28;20041;-68
2022/12/22 05:41:52;;;;;;;86.60;27.67;;;;;;;;;;5025303;28;20041;-68
2022/12/22 05:44:18;;;;;;;98.57;28.63;;;;;;;;;;5026876;28;20109;-68
2022/12/22 05:46:44;;;;;;;99.68;27.52;;;;;;;;;;5031266;28;20099;-68
2022/12/22 05:49:10;;;;;;;102.55;28.92;;;;;;;;;;5031110;28;20042;-68
2022/12/22 05:51:36;;;;;;;90.78;28.92;;;;;;;;;;5019014;28;20045;-67
2022/12/22 05:54:02;;;;;;;104.90;29.20;;;;;;;;;;5018383;28;20037;-67
2022/12/22 05:56:28;;;;;;;90.07;27.63;;;;;;;;;;5012484;28;20034;-67
2022/12/22 05:58:54;;;;;;;69.28;26.48;;;;;;;;;;5021815;28;20427;-67
2022/12/22 06:01:20;;;;;;;77.53;26.85;;;;;;;;;;5023710;28;20049;-67
2022/12/22 06:03:46;;;;;;;75.40;25.30;;;;;;;;;;5024582;28;20088;-67
2022/12/22 06:06:12;;;;;;;69.55;25.25;;;;;;;;;;5023384;28;20139;-67
2022/12/22 06:08:38;;;;;;;73.65;24.88;;;;;;;;;;5018366;28;20559;-67
2022/12/22 06:11:04;;;;;;;68.72;24.27;;;;;;;;;;5020048;28;20132;-67
2022/12/22 06:13:30;;;;;;;73.32;24.67;;;;;;;;;;5029988;28;20037;-67
2022/12/22 06:15:56;;;;;;;56.72;24.52;;;;;;;;;;5027823;28;20402;-67
2022/12/22 06:18:22;;;;;;;72.35;26.02;;;;;;;;;;5025348;28;20052;-67
2022/12/22 06:20:50;;;;;;;69.63;24.02;;;;;;;;;;5014844;28;20127;-67
2022/12/22 06:23:16;;;;;;;71.45;25.92;;;;;;;;;;5019641;28;20466;-67
2022/12/22 06:25:42;;;;;;;63.65;23.98;;;;;;;;;;5022416;28;20065;-67
2022/12/22 06:28:08;;;;;;;66.80;25.60;;;;;;;;;;5013750;28;20037;-67
2022/12/22 06:30:34;;;;;;;61.78;23.40;;;;;;;;;;5021013;28;20044;-67
2022/12/22 06:33:00;;;;;;;69.82;25.30;;;;;;;;;;5018970;28;20540;-67
2022/12/22 06:35:26;;;;;;;64.38;24.45;;;;;;;;;;5003970;28;20041;-67
2022/12/22 06:37:52;;;;;;;61.30;23.40;;;;;;;;;;5018722;28;20044;-66
2022/12/22 06:40:18;;;;;;;58.03;23.27;;;;;;;;;;5029799;28;20127;-67
2022/12/22 06:45:29;;;;;;;58.53;21.48;;;;;;;;;;5027922;28;20074;-67
2022/12/22 06:47:55;;;;;;;60.58;22.50;;;;;;;;;;5023175;28;20034;-67
2022/12/22 06:50:21;;;;;;;65.43;23.73;;;;;;;;;;5028429;28;20048;-67
2022/12/22 06:52:47;;;;;;;65.55;23.73;;;;;;;;;;5012025;28;20044;-67
2022/12/22 06:55:12;;;;;;;65.88;23.15;;;;;;;;;;5024408;28;20791;-67
2022/12/22 06:57:39;;;;;;;66.90;23.48;;;;;;;;;;5027806;28;20030;-67
2022/12/22 07:00:05;;;;;;;70.10;23.65;;;;;;;;;;5026361;28;20038;-67
2022/12/22 07:02:31;;;;;;;68.57;23.27;;;;;;;;;;5017522;28;20132;-67
2022/12/22 07:04:57;;;;;;;64.55;23.40;;;;;;;;;;5012453;28;20137;-67
2022/12/22 07:07:23;;;;;;;67.18;22.13;;;;;;;;;;5022627;28;20469;-67
2022/12/22 07:09:49;;;;;;;68.95;23.05;;;;;;;;;;5024231;28;20042;-66
2022/12/22 07:12:15;;;;;;;70.85;22.70;;;;;;;;;;5023868;28;20038;-67
2022/12/22 07:14:41;;;;;;;68.68;23.20;;;;;;;;;;5028363;28;20495;-67
2022/12/22 07:17:07;;;;;;;72.88;24.13;;;;;;;;;;5025895;28;20038;-67
2022/12/22 07:19:34;;;;;;;74.00;23.55;;;;;;;;;;5048556;22;20338;-65
2022/12/22 07:22:00;;;;;;;75.35;22.63;;;;;;;;;;5070155;28;20043;-65
2022/12/22 07:24:28;;;;;;;64.13;22.35;;;;;;;;;;5070485;28;20040;-65
2022/12/22 07:26:54;;;;;;;76.93;23.50;;;;;;;;;;5072702;28;21269;-65
2022/12/22 07:29:20;;;;;;;64.28;22.00;;;;;;;;;;5058474;28;20533;-65
2022/12/22 07:31:46;;;;;;;76.75;22.80;;;;;;;;;;5042643;28;20041;-65
2022/12/22 07:34:12;;;;;;;59.70;20.95;;;;;;;;;;5044127;28;20029;-65
2022/12/22 07:36:38;;;;;;;69.38;21.05;;;;;;;;;;5049035;28;20110;-65
2022/12/22 07:39:04;;;;;;;61.97;19.27;;;;;;;;;;5049717;28;20034;-65
2022/12/22 07:44:15;;;;;;;69.63;21.42;;;;;;;;;;5045402;28;20041;-64
2022/12/22 07:46:41;;;;;;;58.45;18.92;;;;;;;;;;5051044;28;20044;-65
2022/12/22 07:51:52;;;;;;;210.13;22.77;;;;;;;;;;5048420;28;20048;-65
2022/12/22 07:54:18;;;;;;;56.38;16.17;;;;;;;;;;5041868;28;20034;-65
2022/12/22 07:56:45;;;;;;;113.38;19.63;;;;;;;;;;5046916;28;20060;-65
2022/12/22 07:59:11;;;;;;;127.00;18.33;;;;;;;;;;5049434;28;20037;-65
2022/12/22 08:01:38;;;;;;;119.03;16.65;;;;;;;;;;5046764;28;20033;-65
2022/12/22 08:04:04;;;;;;;149.43;17.27;;;;;;;;;;5045391;28;20502;-64
2022/12/22 08:06:32;;;;;;;86.63;16.35;;;;;;;;;;5039054;28;20095;-64
2022/12/22 08:08:58;;;;;;;122.32;15.50;;;;;;;;;;5046271;28;20099;-65
2022/12/22 08:11:24;;;;;;;72.85;16.83;;;;;;;;;;5047875;28;20040;-64
2022/12/22 08:13:50;;;;;;;86.32;15.43;;;;;;;;;;5049865;28;20045;-64
2022/12/22 08:16:18;;;;;;;160.75;19.85;;;;;;;;;;5045099;28;20129;-64
2022/12/22 08:18:44;;;;;;;176.63;18.40;;;;;;;;;;5043682;28;20506;-64
2022/12/22 08:21:10;;;;;;;75.05;17.15;;;;;;;;;;5033429;28;20049;-64
2022/12/22 08:23:36;;;;;;;55.50;17.50;;;;;;;;;;5038883;28;20427;-64
2022/12/22 08:26:14;;;;;;;59.33;16.27;;;;;;;;;;5042276;28;20037;-65
2022/12/22 08:28:43;;;;;;;54.80;18.08;;;;;;;;;;5051333;28;20045;-64
2022/12/22 08:31:10;;;;;;;55.08;16.95;;;;;;;;;;5036537;28;20043;-64
2022/12/22 08:33:36;;;;;;;64.28;19.75;;;;;;;;;;5044170;28;20095;-64
2022/12/22 08:36:02;;;;;;;71.00;20.75;;;;;;;;;;5046594;28;20482;-65
2022/12/22 08:38:29;;;;;;;71.47;21.33;;;;;;;;;;5017692;28;20041;-64
2022/12/22 08:40:55;;;;;;;68.18;19.55;;;;;;;;;;5042773;28;20127;-65
2022/12/22 08:43:21;;;;;;;61.40;18.73;;;;;;;;;;5045456;28;20041;-65
2022/12/22 08:45:47;;;;;;;58.80;17.05;;;;;;;;;;5044495;28;20049;-65
2022/12/22 08:48:13;;;;;;;68.47;19.40;;;;;;;;;;5046376;28;20395;-65
2022/12/22 08:50:39;;;;;;;64.78;19.98;;;;;;;;;;5043219;28;20038;-65
2022/12/22 08:53:06;;;;;;;55.10;18.80;;;;;;;;;;5042955;28;20040;-65
2022/12/22 08:55:32;;;;;;;51.75;17.67;;;;;;;;;;5040019;28;20126;-65
2022/12/22 08:57:58;;;;;;;51.53;16.67;;;;;;;;;;5040306;28;20082;-64
2022/12/22 09:00:24;;;;;;;47.53;16.98;;;;;;;;;;5032312;28;20084;-64
2022/12/22 09:02:51;;;;;;;49.55;18.25;;;;;;;;;;5031456;28;20049;-64
2022/12/22 09:05:17;;;;;;;54.53;17.52;;;;;;;;;;5036390;28;20049;-64
2022/12/22 09:07:45;;;;;;;48.90;16.50;;;;;;;;;;5039174;28;20037;-65
2022/12/22 09:10:12;;;;;;;47.33;16.88;;;;;;;;;;5033416;28;20041;-64
2022/12/22 09:12:38;;;;;;;44.00;16.13;;;;;;;;;;5040305;28;20041;-64
2022/12/22 09:15:05;;;;;;;43.97;16.15;;;;;;;;;;5044827;28;20033;-64
2022/12/22 09:17:32;;;;;;;40.92;14.88;;;;;;;;;;5047402;28;20444;-65
2022/12/22 09:19:58;;;;;;;40.92;13.80;;;;;;;;;;5044206;28;20052;-64
2022/12/22 09:22:24;;;;;;;44.90;14.75;;;;;;;;;;5051279;28;20044;-64
2022/12/22 09:24:49;;;;;;;35.60;14.02;;;;;;;;;;5050678;28;20047;-64
2022/12/22 09:27:15;;;;;;;38.10;12.65;;;;;;;;;;5048917;28;20123;-64
2022/12/22 09:29:41;;;;;;;36.05;12.75;;;;;;;;;;5043309;28;20041;-65
2022/12/22 09:32:07;;;;;;;34.58;13.27;;;;;;;;;;5031895;28;20368;-65
2022/12/22 09:34:33;;;;;;;31.92;12.25;;;;;;;;;;5035187;28;20036;-64
2022/12/22 09:36:59;;;;;;;38.00;12.63;;;;;;;;;;5042952;28;20106;-64
2022/12/22 09:39:25;;;;;;;32.03;12.88;;;;;;;;;;5037689;28;20116;-64
2022/12/22 09:41:56;;;;;;;30.77;11.85;;;;;;;;;;5035272;28;20037;-65
2022/12/22 09:44:22;;;;;;;30.35;11.70;;;;;;;;;;5041509;28;20452;-64
2022/12/22 09:46:49;;;;;;;33.08;11.32;;;;;;;;;;5042323;28;20127;-65
2022/12/22 09:49:16;;;;;;;37.92;13.38;;;;;;;;;;5033009;28;20044;-65
2022/12/22 09:51:44;;;;;;;40.20;12.88;;;;;;;;;;5033968;28;20056;-65
2022/12/22 09:54:11;;;;;;;38.05;13.10;;;;;;;;;;5045380;28;20744;-64
2022/12/22 09:56:37;;;;;;;34.50;12.45;;;;;;;;;;5047968;28;20511;-65
2022/12/22 09:59:14;;;;;;;30.80;10.13;;;;;;;;;;5042629;28;20040;-65
2022/12/22 10:01:58;;;;;;;32.67;10.25;;;;;;;;;;5048849;28;20049;-65
2022/12/22 10:04:30;;;;;;;30.92;11.07;;;;;;;;;;5038924;28;20029;-64
2022/12/22 10:07:11;;;;;;;26.75;9.30;;;;;;;;;;5046572;28;20116;-65
2022/12/22 10:09:37;;;;;;;;;;;;;;;;;;5048737;28;20502;-65
2022/12/22 10:12:04;;;;;;;33.30;10.77;;;;;;;;;;5042474;28;19917;-65
2022/12/22 10:14:38;;;;;;;31.83;10.30;;;;;;;;;;5048352;28;20052;-65
2022/12/22 10:17:14;;;;;;;33.75;10.70;;;;;;;;;;5033194;28;20133;-65
2022/12/22 10:19:40;;;;;;;34.95;12.13;;;;;;;;;;5048472;28;20049;-66
2022/12/22 10:22:27;;;;;;;26.30;10.13;;;;;;;;;;5049900;28;20052;-65
2022/12/22 10:24:53;;;;;;;31.30;11.50;;;;;;;;;;5040034;28;20119;-66
2022/12/22 10:27:21;;;;;;;27.88;9.55;;;;;;;;;;5043032;28;20060;-65
2022/12/22 10:29:47;;;;;;;33.00;10.48;;;;;;;;;;5034617;28;20045;-66
2022/12/22 10:32:15;;;;;;;35.72;11.48;;;;;;;;;;5042023;28;20041;-66
2022/12/22 10:35:00;;;;;;;31.50;11.85;;;;;;;;;;5044297;28;20033;-66
2022/12/22 10:37:35;;;;;;;32.00;11.95;;;;;;;;;;5042814;28;20510;-66
2022/12/22 10:40:20;;;;;;;34.97;11.73;;;;;;;;;;5043559;28;20041;-66
2022/12/22 10:42:47;;;;;;;33.33;11.43;;;;;;;;;;5048672;28;20056;-66
2022/12/22 10:45:21;;;;;;;30.55;10.30;;;;;;;;;;5049473;28;20040;-65
2022/12/22 10:47:52;;;;;;;26.77;10.18;;;;;;;;;;5042228;28;20104;-66
2022/12/22 10:50:18;;;;;;;26.70;10.50;;;;;;;;;;5045998;28;20041;-66
2022/12/22 10:52:52;;;;;;;25.50;10.63;;;;;;;;;;5044444;28;20033;-66
2022/12/22 10:55:24;;;;;;;28.30;11.13;;;;;;;;;;5047373;28;20415;-66
2022/12/22 10:57:50;;;;;;;28.55;11.07;;;;;;;;;;5051546;28;20243;-66
2022/12/22 11:00:24;;;;;;;28.20;9.65;;;;;;;;;;5045654;28;20527;-66
2022/12/22 11:02:54;;;;;;;27.17;10.35;;;;;;;;;;5046724;28;20040;-66
2022/12/22 11:05:20;;;;;;;25.60;10.73;;;;;;;;;;5043062;28;20049;-66
2022/12/22 11:07:46;;;;;;;30.00;9.68;;;;;;;;;;5043316;28;20052;-66
2022/12/22 11:10:17;;;;;;;21.70;9.32;;;;;;;;;;5049192;28;20036;-66
2022/12/22 11:12:46;;;;;;;21.77;9.15;;;;;;;;;;5036453;28;20425;-66
2022/12/22 11:15:12;;;;;;;25.52;8.95;;;;;;;;;;5037345;28;20197;-65
2022/12/22 11:17:51;;;;;;;21.23;9.05;;;;;;;;;;5047665;28;20095;-64
2022/12/22 11:20:27;;;;;;;19.77;7.85;;;;;;;;;;5052558;28;20049;-65
2022/12/22 11:23:02;;;;;;;26.70;9.48;;;;;;;;;;5053288;28;20517;-65
2022/12/22 11:25:28;;;;;;;21.23;8.68;;;;;;;;;;5046641;28;20045;-65
2022/12/22 11:28:12;;;;;;;19.80;9.00;;;;;;;;;;5046321;28;20041;-65
2022/12/22 11:30:38;;;;;;;19.63;8.32;;;;;;;;;;5046158;28;20043;-65
2022/12/22 11:33:10;;;;;;;21.42;8.95;;;;;;;;;;5047253;28;20497;-65
2022/12/22 11:35:45;;;;;;;20.05;8.02;;;;;;;;;;5043466;28;20041;-65
2022/12/22 11:38:18;;;;;;;17.70;8.02;;;;;;;;;;5037832;28;20029;-66
2022/12/22 11:40:45;;;;;;;18.05;8.18;;;;;;;;;;5042619;28;20038;-65
2022/12/22 11:43:24;;;;;;;17.25;8.48;;;;;;;;;;5034215;28;20049;-65
2022/12/22 11:45:50;;;;;;;22.70;8.98;;;;;;;;;;5049786;28;20049;-66
2022/12/22 11:48:24;;;;;;;19.42;8.73;;;;;;;;;;5037691;28;20045;-65
2022/12/22 11:50:55;;;;;;;18.73;8.13;;;;;;;;;;5043788;28;20048;-66
2022/12/22 11:53:33;;;;;;;24.02;8.80;;;;;;;;;;5033650;28;20033;-66
2022/12/22 11:56:09;;;;;;;20.30;8.10;;;;;;;;;;5034503;28;20098;-66
2022/12/22 11:58:43;;;;;;;17.75;8.02;;;;;;;;;;5035558;28;20584;-66
2022/12/22 12:01:28;;;;;;;19.33;8.98;;;;;;;;;;5038535;28;20063;-66
2022/12/22 12:03:56;;;;;;;20.52;8.60;;;;;;;;;;5053533;28;20387;-65
2022/12/22 12:06:29;;;;;;;21.13;8.70;;;;;;;;;;5052949;28;20044;-66
2022/12/22 12:08:55;;;;;;;24.67;8.93;;;;;;;;;;5044614;28;20041;-66
2022/12/22 12:11:32;;;;;;;18.20;8.38;;;;;;;;;;5039300;28;20037;-66
2022/12/22 12:14:09;;;;;;;22.92;8.45;;;;;;;;;;5043364;28;20037;-66
2022/12/22 12:16:37;;;;;;;22.67;7.80;;;;;;;;;;5037871;28;20397;-66
2022/12/22 12:19:19;;;;;;;17.63;8.65;;;;;;;;;;5042509;28;20028;-66
2022/12/22 12:21:45;;;;;;;;;;;;;;;;;;5037042;28;20090;-66
2022/12/22 12:24:22;;;;;;;18.95;7.70;;;;;;;;;;5033430;28;19974;-66
2022/12/22 12:27:07;;;;;;;21.33;7.45;;;;;;;;;;5035983;28;20025;-66
2022/12/22 12:29:36;;;;;;;19.27;7.90;;;;;;;;;;5032657;28;20037;-66
2022/12/22 12:32:09;;;;;;;20.38;7.38;;;;;;;;;;5033678;28;20042;-66
2022/12/22 12:34:37;;;;;;;17.95;6.82;;;;;;;;;;5033972;28;20037;-66
2022/12/22 12:37:12;;;;;;;16.50;7.18;;;;;;;;;;5033222;28;20041;-66
2022/12/22 12:39:53;;;;;;;20.58;8.05;;;;;;;;;;5044440;28;20115;-66
2022/12/22 12:42:19;;;;;;;18.15;7.45;;;;;;;;;;5040616;28;20044;-66
2022/12/22 12:44:46;;;;;;;19.48;7.22;;;;;;;;;;5035616;28;20406;-66
2022/12/22 12:47:12;;;;;;;16.20;7.07;;;;;;;;;;5034442;28;20499;-66
2022/12/22 12:49:37;;;;;;;21.90;7.90;;;;;;;;;;5044281;28;20077;-66
2022/12/22 12:52:03;;;;;;;20.00;7.97;;;;;;;;;;5032796;28;20479;-66
2022/12/22 12:54:29;;;;;;;18.88;7.68;;;;;;;;;;5039559;28;20040;-66
2022/12/22 12:56:56;;;;;;;19.13;7.72;;;;;;;;;;5041468;28;20037;-66
2022/12/22 12:59:45;;;;;;;26.13;8.18;;;;;;;;;;5042870;28;20506;-66
2022/12/22 13:02:26;;;;;;;19.52;7.50;;;;;;;;;;5031401;28;20041;-66
2022/12/22 13:04:52;;;;;;;;;;;;;;;;;;5033272;28;20116;-66
2022/12/22 13:07:38;;;;;;;18.55;6.65;;;;;;;;;;5033806;28;19956;-66
2022/12/22 13:10:17;;;;;;;19.10;7.10;;;;;;;;;;5035677;28;20114;-66
2022/12/22 13:12:50;;;;;;;15.80;6.18;;;;;;;;;;5052594;28;20033;-66
2022/12/22 13:15:28;;;;;;;18.80;6.75;;;;;;;;;;5053356;28;20048;-66
2022/12/22 13:17:54;;;;;;;16.58;6.35;;;;;;;;;;5048996;28;20033;-66
2022/12/22 13:20:34;;;;;;;15.02;5.72;;;;;;;;;;5053797;22;20045;-69
2022/12/22 13:23:01;;;;;;;12.85;5.30;;;;;;;;;;5023848;28;20083;-69
2022/12/22 13:25:49;;;;;;;15.93;5.13;;;;;;;;;;5032392;28;20052;-69
2022/12/22 13:28:16;;;;;;;14.13;3.67;;;;;;;;;;5026726;28;20041;-69
2022/12/22 13:30:48;;;;;;;18.35;4.65;;;;;;;;;;5029235;28;20045;-69
2022/12/22 13:33:17;;;;;;;14.85;3.90;;;;;;;;;;5032604;28;20041;-69
2022/12/22 13:35:44;;;;;;;14.30;4.82;;;;;;;;;;5030276;28;20048;-69
2022/12/22 13:38:29;;;;;;;15.02;4.45;;;;;;;;;;5023214;28;20076;-69
2022/12/22 13:40:56;;;;;;;14.10;4.15;;;;;;;;;;5024500;28;20063;-69
2022/12/22 13:43:22;;;;;;;16.13;4.55;;;;;;;;;;5032059;28;20127;-69
2022/12/22 13:45:49;;;;;;;10.18;4.25;;;;;;;;;;5032289;28;20076;-69
2022/12/22 13:48:20;;;;;;;12.73;4.00;;;;;;;;;;5028899;28;20483;-69
2022/12/22 13:51:12;;;;;;;11.82;3.88;;;;;;;;;;5023946;28;20069;-69
2022/12/22 13:53:40;;;;;;;13.15;4.55;;;;;;;;;;4964309;28;20038;-69
2022/12/22 13:56:07;;;;;;;11.13;4.15;;;;;;;;;;5024379;28;20056;-69
2022/12/22 13:58:36;;;;;;;8.93;3.75;;;;;;;;;;5025836;28;20034;-69
2022/12/22 14:01:04;;;;;;;12.45;3.70;;;;;;;;;;5024684;28;20045;-69
2022/12/22 14:03:30;;;;;;;11.73;3.10;;;;;;;;;;5028379;28;20041;-69
2022/12/22 14:05:56;;;;;;;12.45;3.55;;;;;;;;;;5031272;28;20042;-69
2022/12/22 14:08:23;;;;;;;11.93;3.58;;;;;;;;;;5028834;28;20538;-69
2022/12/22 14:10:50;;;;;;;8.52;3.20;;;;;;;;;;5028092;28;20522;-69
2022/12/22 14:13:18;;;;;;;10.82;3.40;;;;;;;;;;5027541;28;20526;-69
2022/12/22 14:15:44;;;;;;;10.85;3.33;;;;;;;;;;5024910;28;20047;-69
2022/12/22 14:18:14;;;;;;;12.07;3.75;;;;;;;;;;5029152;28;20083;-69
2022/12/22 14:20:42;;;;;;;13.05;3.90;;;;;;;;;;5025125;28;20045;-69
2022/12/22 14:23:12;;;;;;;14.43;4.90;;;;;;;;;;5027088;28;20523;-68
2022/12/22 14:25:40;;;;;;;16.98;4.72;;;;;;;;;;5028127;28;20084;-69
2022/12/22 14:28:11;;;;;;;12.55;4.63;;;;;;;;;;5029288;28;20540;-70
2022/12/22 14:30:41;;;;;;;13.05;4.85;;;;;;;;;;5025350;28;20045;-69
2022/12/22 14:33:17;;;;;;;9.85;4.50;;;;;;;;;;5027379;28;20041;-69
2022/12/22 14:35:44;;;;;;;10.90;4.63;;;;;;;;;;5033116;28;20029;-69
2022/12/22 14:38:19;;;;;;;14.90;5.15;;;;;;;;;;5026238;28;20185;-70
2022/12/22 14:40:45;;;;;;;13.93;4.85;;;;;;;;;;5030588;28;20068;-69
2022/12/22 14:43:17;;;;;;;11.30;4.82;;;;;;;;;;5028126;28;20040;-70
2022/12/22 14:45:47;;;;;;;10.48;4.95;;;;;;;;;;5028205;28;20494;-70
2022/12/22 14:48:18;;;;;;;15.30;5.30;;;;;;;;;;5031374;28;20417;-70
2022/12/22 14:50:44;;;;;;;;;;;;;;;;;;5028347;28;20824;-70
2022/12/22 14:53:13;;;;;;;11.38;4.88;;;;;;;;;;5030106;28;19948;-69
2022/12/22 14:55:48;;;;;;;13.85;5.25;;;;;;;;;;5031223;28;20042;-69
2022/12/22 14:58:34;;;;;;;25.33;16.75;;;;;;;;;;5028916;28;20124;-69
2022/12/22 15:01:15;;;;;;;14.82;5.72;;;;;;;;;;5024347;28;20545;-69
2022/12/22 15:03:41;;;;;;;;;;;;;;;;;;5028769;28;20052;-69
2022/12/22 15:06:25;;;;;;;18.10;12.18;;;;;;;;;;5034728;28;19917;-69
2022/12/22 15:08:56;;;;;;;31.15;23.33;;;;;;;;;;5027423;28;20037;-69
2022/12/22 15:11:23;;;;;;;16.85;7.50;;;;;;;;;;5026709;28;20041;-69
2022/12/22 15:13:51;;;;;;;15.07;9.10;;;;;;;;;;5029541;28;20041;-70
2022/12/22 15:16:20;;;;;;;14.35;6.13;;;;;;;;;;5029762;28;20079;-69
2022/12/22 15:18:47;;;;;;;11.80;5.75;;;;;;;;;;5027849;28;20121;-69
2022/12/22 15:21:14;;;;;;;12.82;6.70;;;;;;;;;;5029572;28;20044;-69
2022/12/22 15:23:40;;;;;;;17.83;6.82;;;;;;;;;;5028020;28;20042;-69
2022/12/22 15:26:06;;;;;;;14.35;6.95;;;;;;;;;;5028018;28;20522;-69
2022/12/22 15:28:33;;;;;;;17.38;6.82;;;;;;;;;;5025639;28;20041;-69
2022/12/22 15:30:59;;;;;;;15.02;7.00;;;;;;;;;;5027522;28;20079;-69
2022/12/22 15:33:25;;;;;;;18.00;7.13;;;;;;;;;;5028223;28;20388;-69
2022/12/22 15:35:51;;;;;;;15.20;7.00;;;;;;;;;;5026959;28;20038;-69
2022/12/22 15:38:22;;;;;;;16.35;8.60;;;;;;;;;;5025356;28;20080;-70
2022/12/22 15:40:48;;;;;;;18.75;8.57;;;;;;;;;;5028426;28;20041;-69
2022/12/22 15:43:14;;;;;;;19.50;9.38;;;;;;;;;;5030180;28;20105;-70
2022/12/22 15:45:41;;;;;;;17.70;10.15;;;;;;;;;;5033143;28;20095;-69
2022/12/22 15:48:10;;;;;;;15.35;7.97;;;;;;;;;;5033346;28;20110;-69
2022/12/22 15:50:39;;;;;;;19.15;9.80;;;;;;;;;;5034492;28;20050;-69
2022/12/22 15:53:08;;;;;;;19.58;11.25;;;;;;;;;;5026204;28;20040;-69
2022/12/22 15:55:35;;;;;;;18.85;9.75;;;;;;;;;;5034161;28;20044;-69
2022/12/22 15:58:01;;;;;;;19.17;9.73;;;;;;;;;;5044093;28;20029;-69
2022/12/22 16:00:27;;;;;;;21.15;9.90;;;;;;;;;;5030771;28;20112;-69
2022/12/22 16:02:53;;;;;;;18.98;9.98;;;;;;;;;;5029329;28;20050;-69
2022/12/22 16:05:19;;;;;;;19.83;10.80;;;;;;;;;;5029840;28;20041;-70
2022/12/22 16:07:45;;;;;;;18.80;10.98;;;;;;;;;;5034199;28;20037;-69
2022/12/22 16:10:20;;;;;;;18.15;9.60;;;;;;;;;;5028513;28;20038;-69
2022/12/22 16:12:52;;;;;;;22.77;10.70;;;;;;;;;;5024789;28;20052;-69
2022/12/22 16:15:18;;;;;;;17.77;9.38;;;;;;;;;;5031243;28;20042;-69
2022/12/22 16:17:44;;;;;;;19.35;9.52;;;;;;;;;;5029317;28;20465;-69
2022/12/22 16:20:11;;;;;;;20.23;10.55;;;;;;;;;;5032001;28;20129;-69
2022/12/22 16:22:37;;;;;;;26.63;15.18;;;;;;;;;;5031722;28;20144;-69
2022/12/22 16:25:06;;;;;;;16.58;9.65;;;;;;;;;;5027254;28;20517;-69
2022/12/22 16:27:32;;;;;;;25.63;11.77;;;;;;;;;;5031071;28;20063;-69
2022/12/22 16:29:58;;;;;;;25.42;13.52;;;;;;;;;;5031575;28;20041;-69
2022/12/22 16:32:29;;;;;;;22.65;15.35;;;;;;;;;;5024459;28;20451;-69
2022/12/22 16:35:14;;;;;;;29.92;17.08;;;;;;;;;;5032794;28;20037;-69
2022/12/22 16:37:40;;;;;;;28.52;18.75;;;;;;;;;;5028869;28;20045;-69
2022/12/22 16:40:06;;;;;;;30.45;19.38;;;;;;;;;;5029906;28;20487;-69
2022/12/22 16:42:32;;;;;;;29.23;15.02;;;;;;;;;;5032973;28;20042;-69
2022/12/22 16:44:59;;;;;;;25.50;12.02;;;;;;;;;;5033713;28;20041;-69
2022/12/22 16:47:26;;;;;;;25.50;15.60;;;;;;;;;;5029364;28;20067;-69
2022/12/22 16:49:52;;;;;;;25.55;14.55;;;;;;;;;;5028693;28;20040;-69
2022/12/22 16:52:20;;;;;;;26.92;14.73;;;;;;;;;;5031310;28;20038;-69
2022/12/22 16:54:46;;;;;;;27.02;13.77;;;;;;;;;;5029222;28;20044;-69
2022/12/22 16:57:12;;;;;;;24.88;13.95;;;;;;;;;;5030580;28;20483;-70
2022/12/22 16:59:38;;;;;;;27.58;14.57;;;;;;;;;;5033781;28;20037;-69
2022/12/22 17:02:04;;;;;;;26.15;14.05;;;;;;;;;;5031937;28;20045;-69
2022/12/22 17:04:32;;;;;;;28.85;14.43;;;;;;;;;;5028041;28;20041;-69
2022/12/22 17:06:59;;;;;;;32.55;15.88;;;;;;;;;;5031593;28;20044;-69
2022/12/22 17:09:41;;;;;;;31.70;15.10;;;;;;;;;;5030182;28;20044;-69
2022/12/22 17:12:09;;;;;;;29.60;15.05;;;;;;;;;;5024868;28;20502;-69
2022/12/22 17:14:39;;;;;;;26.35;13.35;;;;;;;;;;5031763;28;20049;-69
2022/12/22 17:17:05;;;;;;;28.10;14.60;;;;;;;;;;5030207;28;20045;-69
2022/12/22 17:19:31;;;;;;;28.08;14.65;;;;;;;;;;5029430;28;20052;-69
2022/12/22 17:21:58;;;;;;;27.17;14.80;;;;;;;;;;5030457;28;20050;-69
2022/12/22 17:24:24;;;;;;;27.83;15.05;;;;;;;;;;5031674;28;20037;-69
2022/12/22 17:26:50;;;;;;;30.85;15.32;;;;;;;;;;5031120;28;20041;-69
2022/12/22 17:29:18;;;;;;;28.88;14.90;;;;;;;;;;5028286;28;20722;-69
2022/12/22 17:31:44;;;;;;;33.05;15.38;;;;;;;;;;5032526;28;20091;-69
2022/12/22 17:34:17;;;;;;;30.58;16.02;;;;;;;;;;5025710;28;20539;-69
2022/12/22 17:36:45;;;;;;;29.17;15.60;;;;;;;;;;5030124;28;20029;-69
2022/12/22 17:39:21;;;;;;;29.83;16.63;;;;;;;;;;5024732;28;20630;-69
2022/12/22 17:41:47;;;;;;;33.60;18.33;;;;;;;;;;5029961;28;20037;-69
2022/12/22 17:44:17;;;;;;;33.45;17.95;;;;;;;;;;5022733;28;20052;-70
2022/12/22 17:46:43;;;;;;;32.10;16.00;;;;;;;;;;5031529;28;20037;-69
2022/12/22 17:49:09;;;;;;;28.10;15.82;;;;;;;;;;5029618;28;20406;-70
2022/12/22 17:51:36;;;;;;;28.40;14.15;;;;;;;;;;5032314;28;20041;-69
2022/12/22 17:54:02;;;;;;;32.28;15.80;;;;;;;;;;5030397;28;20044;-69
2022/12/22 17:56:28;;;;;;;25.95;14.30;;;;;;;;;;5029936;28;20112;-69
2022/12/22 17:58:54;;;;;;;33.47;15.77;;;;;;;;;;5029416;28;20087;-70
2022/12/22 18:01:25;;;;;;;33.45;16.48;;;;;;;;;;5029117;28;20041;-68
2022/12/22 18:03:51;;;;;;;29.35;14.48;;;;;;;;;;5027619;28;20073;-69
2022/12/22 18:06:18;;;;;;;33.42;15.95;;;;;;;;;;5037124;28;20091;-69
2022/12/22 18:08:44;;;;;;;31.50;16.10;;;;;;;;;;5028475;28;20091;-70
2022/12/22 18:11:11;;;;;;;34.70;16.75;;;;;;;;;;5030053;28;20071;-70
2022/12/22 18:13:37;;;;;;;35.60;16.50;;;;;;;;;;5028468;28;20128;-70